Flight Track Log - Related Links

Times and Time Zones

All times are in EDT time to prevent confusion due to time zone crossing. See the AJT711 flight status page for this flight to view local times or setup timezone preferences in your user account.

Time Position Orientation Groundspeed Altitude Reporting Facility
EDT Latitude Longitude Course Direction KTS MPH feet Rate Location/Type
Mon 11:08:54 PM 25.7981 -80.2767 89° East 144 166 1,100  Level Miami Center
Mon 11:09:09 PM 25.7986 -80.2514 89° East 133 153 1,800 2,320 Climbing Miami Center
Mon 11:10:09 PM 25.7789 -80.2047 115° Southeast 219 252 4,000 2,700 Climbing Miami Center
Mon 11:11:09 PM 25.7256 -80.1617 144° Southeast 272 313 7,200 3,521 Climbing Miami Center
Mon 11:12:10 PM 25.6761 -80.2225 228° Southwest 169 194 11,100 3,098 Climbing Miami Center
Mon 11:13:11 PM 25.6261 -80.3089 237° Southwest 235 270 13,500 2,950 Climbing Miami Center
Mon 11:14:10 PM 25.5694 -80.4017 236° Southwest 306 352 17,000 3,050 Climbing Miami Center
Mon 11:15:11 PM 25.5150 -80.5014 239° Southwest 368 423 19,600 2,924 Climbing Miami Center
Mon 11:16:09 PM 25.4581 -80.6008 238° Southwest 387 445 22,800 2,797 Climbing Miami Center
Mon 11:17:09 PM 25.4036 -80.6933 237° Southwest 398 458 25,100 2,341 Climbing Miami Center
Mon 11:18:12 PM 25.3444 -80.7972 238° Southwest 398 458 27,600 2,400 Climbing Miami Center
Mon 11:19:09 PM 25.2850 -80.9011 238° Southwest 403 464 29,900 2,237 Climbing Miami Center
Mon 11:20:10 PM 25.2214 -81.0114 237° Southwest 409 471 32,000 2,361 Climbing Miami Center
Mon 11:21:11 PM 25.1600 -81.1172 237° Southwest 415 478 34,700 2,410 Climbing Miami Center
Mon 11:22:12 PM 25.1006 -81.2183 237° Southwest 410 472 36,900 1,900 Climbing Miami Center
Mon 11:23:11 PM 25.0414 -81.3194 237° Southwest 410 472 38,500 1,424 Climbing Miami Center
Mon 11:24:10 PM 24.9817 -81.4203 237° Southwest 410 472 39,700 763 Climbing Miami Center
Mon 11:25:09 PM 24.9222 -81.5233 238° Southwest 410 472 40,000 150 Climbing Miami Center
Mon 11:26:10 PM 24.8622 -81.6333 239° Southwest 405 466 40,000  Level Miami Center
Mon 11:27:10 PM 24.8025 -81.7361 237° Southwest 400 460 40,000  Level Miami Center
Mon 11:28:11 PM 24.7364 -81.8456 236° Southwest 410 472 40,000  Level Miami Center
Mon 11:29:11 PM 24.6769 -81.9300 232° Southwest 410 472 40,000  Level Miami Center
Mon 11:30:11 PM 24.6172 -82.0303 237° Southwest 404 465 40,000  Level Miami Center
Mon 11:31:09 PM 24.5553 -82.1306 236° Southwest 404 465 40,000  Level Miami Center
Mon 11:32:09 PM 24.4972 -82.2331 238° Southwest 404 465 40,000  Level Miami Center
Mon 11:33:09 PM 24.4331 -82.3328 235° Southwest 404 465 40,000  Level Miami Center
Mon 11:34:11 PM 24.3661 -82.4461 237° Southwest 410 472 40,000  Level Miami Center
Mon 11:35:09 PM 24.3058 -82.5481 237° Southwest 410 472 40,000  Level Miami Center
Mon 11:36:10 PM 24.2394 -82.6478 234° Southwest 410 472 40,000  Level Miami Center
Mon 11:37:09 PM 24.1892 -82.7569 243° Southwest 410 472 40,000  Level Miami Center
Mon 11:38:11 PM 24.1389 -82.8658 243° Southwest 404 465 40,000  Level Miami Center
Mon 11:39:12 PM 24.0844 -82.9769 242° Southwest 409 471 40,000  Level Miami Center
Mon 11:40:10 PM 24.0339 -83.0858 243° Southwest 409 471 40,000  Level Miami Center
Mon 11:41:10 PM 23.9833 -83.1992 244° Southwest 414 476 40,000  Level Miami Center
Mon 11:42:11 PM 23.9286 -83.3075 241° Southwest 414 476 40,000  Level Miami Center
Mon 11:43:11 PM 23.8781 -83.4161 243° Southwest 414 476 40,000  Level Miami Center
Mon 11:45:00 PM 23.7833 -83.6233 243° Southwest  Level FlightAware Approximate
Mon 11:52:00 PM 23.4156 -84.4188 243° Southwest  Level FlightAware Approximate
Mon 11:53:00 PM 23.3627 -84.5321 243° Southwest  Level FlightAware Approximate
Mon 11:54:00 PM 23.3098 -84.6453 243° Southwest  Level FlightAware Approximate
Mon 11:55:00 PM 23.2568 -84.7584 243° Southwest  Level FlightAware Approximate
Mon 11:56:00 PM 23.2037 -84.8714 243° Southwest  Level FlightAware Approximate
Mon 11:57:00 PM 23.1505 -84.9843 243° Southwest  Level FlightAware Approximate
Mon 11:58:00 PM 23.0972 -85.0971 243° Southwest  Level FlightAware Approximate
Mon 11:59:00 PM 23.0439 -85.2099 243° Southwest  Level FlightAware Approximate
Tue 12:00:00 AM 22.9905 -85.3225 243° Southwest  Level FlightAware Approximate
Tue 12:01:00 AM 22.9370 -85.4351 243° Southwest  Level FlightAware Approximate
Tue 12:02:00 AM 22.8834 -85.5475 243° Southwest  Level FlightAware Approximate
Tue 12:03:00 AM 22.8298 -85.6599 243° Southwest  Level FlightAware Approximate
Tue 12:04:00 AM 22.7760 -85.7722 243° Southwest  Level FlightAware Approximate
Tue 12:05:00 AM 22.7222 -85.8845 243° Southwest  Level FlightAware Approximate
Tue 12:06:00 AM 22.6683 -85.9966 243° Southwest  Level FlightAware Approximate
Tue 12:07:00 AM 22.6170 -86.1107 244° Southwest  Level FlightAware Approximate
Tue 12:08:00 AM 22.5659 -86.2243 244° Southwest  Level FlightAware Approximate
Tue 12:09:00 AM 22.5147 -86.3377 244° Southwest  Level FlightAware Approximate
Tue 12:10:00 AM 22.4632 -86.4510 244° Southwest  Level FlightAware Approximate
Tue 12:11:00 AM 22.4113 -86.5640 243° Southwest  Level FlightAware Approximate
Tue 12:12:00 AM 22.3587 -86.6766 243° Southwest  Level FlightAware Approximate
Tue 12:13:00 AM 22.3056 -86.7889 242° Southwest  Level FlightAware Approximate
Tue 12:14:00 AM 22.2502 -86.8998 242° Southwest  Level FlightAware Approximate
Tue 12:15:00 AM 22.1947 -87.0106 242° Southwest  Level FlightAware Approximate
Tue 12:16:00 AM 22.1423 -87.1231 244° Southwest  Level FlightAware Approximate
Tue 12:17:00 AM 22.0906 -87.2360 244° Southwest  Level FlightAware Approximate
Tue 12:18:00 AM 22.0389 -87.3488 244° Southwest  Level FlightAware Approximate
Tue 12:19:00 AM 21.9869 -87.4614 243° Southwest  Level FlightAware Approximate
Tue 12:20:00 AM 21.9341 -87.5735 243° Southwest  Level FlightAware Approximate
Tue 12:21:00 AM 21.8813 -87.6856 243° Southwest  Level FlightAware Approximate
Tue 12:22:00 AM 21.8334 -87.7999 242° Southwest  Level FlightAware Approximate
Tue 12:23:00 AM 21.7802 -87.9117 243° Southwest  Level FlightAware Approximate
Tue 12:24:00 AM 21.7278 -88.0239 243° Southwest  Level FlightAware Approximate
Tue 12:25:00 AM 21.6729 -88.1346 240° Southwest  Level FlightAware Approximate
Tue 12:26:00 AM 21.6152 -88.2436 240° Southwest  Level FlightAware Approximate
Tue 12:27:00 AM 21.5575 -88.3526 240° Southwest  Level FlightAware Approximate
Tue 12:28:00 AM 21.5019 -88.4629 242° Southwest  Level FlightAware Approximate
Tue 12:29:00 AM 21.4482 -88.5741 244° Southwest  Level FlightAware Approximate
Tue 12:30:00 AM 21.3971 -88.6867 244° Southwest  Level FlightAware Approximate
Tue 12:31:00 AM 21.3459 -88.7992 244° Southwest  Level FlightAware Approximate
Tue 12:32:00 AM 21.2938 -88.9112 239° Southwest  Level FlightAware Approximate
Tue 12:33:00 AM 21.2341 -89.0187 239° Southwest  Level FlightAware Approximate
Tue 12:34:00 AM 21.1800 -89.1295 244° Southwest  Level FlightAware Approximate
Tue 12:35:00 AM 21.1283 -89.2416 244° Southwest  Level FlightAware Approximate
Tue 12:36:00 AM 21.0778 -89.3543 245° Southwest  Level FlightAware Approximate
Tue 12:37:00 AM 21.0254 -89.4659 242° Southwest  Level FlightAware Approximate
Tue 12:38:00 AM 20.9648 -89.5714 247° West  Level FlightAware Approximate
Tue 12:39:00 AM 20.9167 -89.6500 180° South  Level FlightAware Approximate
Tue 12:40:00 AM 20.9370 -89.6577 180° South  Level Estimated
Tue 12:41:00 AM 20.9370 -89.6577 180° South  Level Estimated
Tue 12:42:00 AM 20.9370 -89.6577 180° South  Level Estimated
Tue 12:43:00 AM 20.9370 -89.6577 180° South  Level Estimated
Tue 12:44:00 AM 20.9370 -89.6577 180° South  Level Estimated
Tue 12:45:00 AM 20.9370 -89.6577 180° South  Level Estimated
Tue 12:46:00 AM 20.9370 -89.6577 180° South  Level Estimated
Tue 12:47:00 AM 20.9370 -89.6577 180° South  Level Estimated
Tue 12:48:00 AM 20.9370 -89.6577 180° South  Level Estimated
Tue 12:49:00 AM 20.9370 -89.6577 180° South  Level Estimated
Tue 12:50:00 AM 20.9370 -89.6577 180° South  Level Estimated
Tue 12:51:00 AM 20.9370 -89.6577 180° South  Level Estimated
Tue 12:52:00 AM 20.9370 -89.6577 180° South  Level Estimated
Tue 12:53:00 AM 20.9370 -89.6577 180° South  Level Estimated
Tue 12:54:00 AM 20.9370 -89.6577 180° South  Level Estimated
Tue 12:55:00 AM 20.9370 -89.6577 180° South  Level Estimated
Tue 12:56:00 AM 20.9370 -89.6577 180° South  Level Estimated
Tue 12:57:00 AM 20.9370 -89.6577 180° South  Level Estimated
Tue 12:58:00 AM 20.9370 -89.6577 180° South  Level Estimated
Tue 12:59:00 AM 20.9370 -89.6577 180° South  Level Estimated
Tue 01:00:00 AM 20.9370 -89.6577 180° South  Level Estimated

Login

Don't have an account? Register now (free) for customized features, flight alerts, and more!